createdAt,value
2023-05-31T00:01:31.248Z,52.80
2023-05-31T00:03:59.702Z,14.60
2023-05-31T00:06:28.120Z,38.50
2023-05-31T00:08:56.340Z,62.87
2023-05-31T00:11:24.650Z,46.10
2023-05-31T00:13:53.120Z,57.10
2023-05-31T00:16:51.303Z,18.33
2023-05-31T00:19:11.255Z,47.80
2023-05-31T00:21:39.555Z,23.87
2023-05-31T00:24:08.465Z,60.83
2023-05-31T00:26:36.852Z,67.20
2023-05-31T00:29:05.044Z,61.40
2023-05-31T00:31:33.334Z,66.07
2023-05-31T00:34:01.692Z,45.97
2023-05-31T00:36:31.657Z,34.93
2023-05-31T00:38:59.947Z,81.40
2023-05-31T00:41:28.335Z,43.27
2023-05-31T00:43:56.493Z,71.27
2023-05-31T00:46:30.041Z,46.00
2023-05-31T00:48:59.099Z,33.30
2023-05-31T00:51:29.040Z,20.63
2023-05-31T00:53:59.166Z,68.77
2023-05-31T00:56:27.973Z,52.10
2023-05-31T00:58:58.329Z,72.37
2023-05-31T01:01:28.656Z,76.50
2023-05-31T01:03:57.847Z,28.07
2023-05-31T01:06:26.250Z,79.13
2023-05-31T01:08:54.804Z,48.73
2023-05-31T01:11:34.365Z,41.30
2023-05-31T01:14:13.293Z,95.63
2023-05-31T01:16:48.112Z,104.40
2023-05-31T01:19:31.010Z,104.23
2023-05-31T01:22:15.948Z,112.77
2023-05-31T01:24:54.826Z,126.30
2023-05-31T01:27:25.177Z,100.40
2023-05-31T01:29:55.094Z,68.73
2023-05-31T01:32:24.931Z,62.60
2023-05-31T01:34:53.231Z,47.73
2023-05-31T01:37:21.374Z,78.07
2023-05-31T01:39:53.042Z,56.57
2023-05-31T01:42:22.910Z,74.97
2023-05-31T01:44:54.592Z,75.43
2023-05-31T01:47:23.966Z,95.43
2023-05-31T01:49:53.207Z,105.97
2023-05-31T01:52:23.275Z,81.00
2023-05-31T01:54:51.647Z,96.57
2023-05-31T01:57:21.732Z,80.10
2023-05-31T01:59:50.742Z,137.40
2023-05-31T02:02:21.036Z,54.57
2023-05-31T02:04:49.327Z,89.23
2023-05-31T02:07:18.079Z,80.90
2023-05-31T02:09:46.263Z,136.00
2023-05-31T02:12:14.478Z,113.50
2023-05-31T02:14:42.841Z,90.60
2023-05-31T02:17:11.064Z,79.77
2023-05-31T02:19:41.950Z,108.07
2023-05-31T02:22:10.131Z,81.00
2023-05-31T02:24:40.078Z,113.27
2023-05-31T02:27:08.288Z,127.60
2023-05-31T02:29:36.833Z,103.33
2023-05-31T02:32:05.590Z,114.87
2023-05-31T02:34:34.670Z,96.53
2023-05-31T02:37:05.005Z,51.63
2023-05-31T02:39:33.261Z,92.60
2023-05-31T02:42:01.554Z,76.70
2023-05-31T02:44:29.922Z,98.33
2023-05-31T02:46:58.258Z,88.30
2023-05-31T02:49:26.540Z,88.00
2023-05-31T02:51:54.935Z,65.23
2023-05-31T02:54:24.675Z,96.40
2023-05-31T02:56:52.838Z,71.53
2023-05-31T02:59:21.176Z,51.27
2023-05-31T03:01:49.567Z,34.97
2023-05-31T03:04:17.723Z,106.03
2023-05-31T03:06:46.527Z,67.53
2023-05-31T03:09:17.735Z,61.33
2023-05-31T03:11:47.924Z,47.23
2023-05-31T03:14:16.249Z,80.00
2023-05-31T03:16:46.106Z,143.57
2023-05-31T03:19:14.752Z,106.73
2023-05-31T03:21:43.338Z,154.77
2023-05-31T03:24:11.594Z,18.57
2023-05-31T03:26:39.990Z,51.10
2023-05-31T03:29:09.609Z,60.63
2023-05-31T03:31:37.819Z,72.67
2023-05-31T03:34:06.030Z,84.00
2023-05-31T03:36:34.316Z,51.13
2023-05-31T03:39:02.656Z,37.83
2023-05-31T03:41:31.120Z,33.73
2023-05-31T03:43:59.454Z,49.20
2023-05-31T03:46:29.144Z,16.97
2023-05-31T03:48:58.690Z,55.27
2023-05-31T03:51:27.808Z,67.03
2023-05-31T03:53:55.996Z,71.87
2023-05-31T03:56:24.342Z,17.77
2023-05-31T03:58:53.414Z,85.07
2023-05-31T04:01:21.932Z,31.10
2023-05-31T04:03:51.739Z,50.23
2023-05-31T04:06:20.166Z,49.03
2023-05-31T04:08:48.448Z,67.83
2023-05-31T04:11:16.923Z,53.03
2023-05-31T04:13:45.217Z,64.57
2023-05-31T04:16:13.444Z,59.87
2023-05-31T04:18:41.962Z,56.30
2023-05-31T04:21:11.683Z,30.70
2023-05-31T04:23:39.928Z,60.27
2023-05-31T04:26:08.351Z,4.93
2023-05-31T04:28:36.727Z,23.37
2023-05-31T04:31:05.081Z,38.80
2023-05-31T04:33:34.837Z,59.67
2023-05-31T04:36:04.465Z,50.33
2023-05-31T04:38:34.117Z,27.93
2023-05-31T04:41:02.450Z,35.60
2023-05-31T04:43:31.024Z,32.47
2023-05-31T04:46:01.673Z,46.77
2023-05-31T04:48:30.400Z,26.57
2023-05-31T04:51:00.433Z,47.23
2023-05-31T04:53:28.898Z,23.17
2023-05-31T04:55:58.652Z,31.77
2023-05-31T04:58:27.004Z,15.30
2023-05-31T05:00:55.872Z,47.43
2023-05-31T05:03:24.498Z,44.63
2023-05-31T05:05:53.162Z,43.30
2023-05-31T05:08:21.867Z,14.67
2023-05-31T05:10:50.299Z,45.27
2023-05-31T05:13:20.010Z,10.83
2023-05-31T05:15:48.408Z,14.33
2023-05-31T05:18:16.822Z,22.80
2023-05-31T05:20:45.273Z,13.00
2023-05-31T05:23:13.513Z,9.23
2023-05-31T05:25:41.984Z,19.57
2023-05-31T05:28:11.369Z,12.27
2023-05-31T05:30:41.062Z,6.27
2023-05-31T05:33:09.559Z,27.47
2023-05-31T05:35:37.865Z,12.73
2023-05-31T05:38:06.074Z,16.03
2023-05-31T05:40:34.350Z,17.37
2023-05-31T05:43:02.874Z,7.67
2023-05-31T05:45:31.001Z,13.13
2023-05-31T05:48:01.118Z,12.83
2023-05-31T05:50:29.435Z,18.07
2023-05-31T05:52:57.772Z,26.77
2023-05-31T05:55:26.172Z,10.50
2023-05-31T05:57:54.350Z,15.83
2023-05-31T06:00:25.188Z,22.30
2023-05-31T06:02:53.595Z,19.43
2023-05-31T06:05:26.580Z,8.17
2023-05-31T06:07:56.013Z,4.93
2023-05-31T06:10:24.818Z,5.53
2023-05-31T06:12:53.009Z,8.20
2023-05-31T06:15:21.382Z,10.33
2023-05-31T06:17:50.309Z,3.20
2023-05-31T06:20:19.294Z,7.17
2023-05-31T06:22:49.021Z,15.80
2023-05-31T06:25:18.842Z,13.53
2023-05-31T06:27:47.260Z,7.13
2023-05-31T06:30:16.414Z,10.43
2023-05-31T06:32:44.706Z,9.33
2023-05-31T06:35:13.105Z,13.40
2023-05-31T06:37:41.417Z,7.60
2023-05-31T06:40:12.173Z,12.70
2023-05-31T06:42:40.356Z,15.03
2023-05-31T06:45:09.693Z,12.50
2023-05-31T06:47:38.187Z,9.10
2023-05-31T06:50:07.090Z,5.93
2023-05-31T06:52:35.498Z,5.80
2023-05-31T06:55:03.828Z,5.53
2023-05-31T06:57:33.692Z,9.10
2023-05-31T07:00:01.983Z,2.80
2023-05-31T07:02:30.524Z,4.53
2023-05-31T07:04:59.964Z,3.77
2023-05-31T07:07:28.487Z,0.70
2023-05-31T07:09:56.775Z,3.43
2023-05-31T07:12:25.057Z,2.63
2023-05-31T07:14:54.857Z,5.20
2023-05-31T07:17:23.153Z,8.43
2023-05-31T07:19:52.277Z,4.70
2023-05-31T07:22:20.462Z,3.67
2023-05-31T07:24:48.879Z,0.70
2023-05-31T07:27:17.221Z,0.97
2023-05-31T07:29:45.547Z,4.70
2023-05-31T07:32:15.278Z,4.20
2023-05-31T07:35:01.164Z,8.23
2023-05-31T07:37:32.276Z,0.73
2023-05-31T07:40:00.682Z,10.90
2023-05-31T07:42:29.904Z,3.67
2023-05-31T07:44:58.443Z,5.37
2023-05-31T07:47:28.021Z,0.70
2023-05-31T07:49:56.387Z,9.20
2023-05-31T07:52:24.836Z,5.00
2023-05-31T07:54:53.143Z,0.80
2023-05-31T07:57:21.365Z,0.70
2023-05-31T07:59:53.192Z,0.90
2023-05-31T08:02:21.551Z,0.73
2023-05-31T08:04:51.569Z,2.30
2023-05-31T08:07:19.856Z,0.80
2023-05-31T08:09:48.750Z,3.37
2023-05-31T08:12:19.279Z,0.67
2023-05-31T08:14:48.619Z,4.00
2023-05-31T08:17:17.062Z,5.27
2023-05-31T08:19:45.530Z,0.70
2023-05-31T08:22:15.197Z,0.53
2023-05-31T08:24:43.503Z,0.50
2023-05-31T08:27:11.947Z,3.33
2023-05-31T08:29:40.451Z,0.60
2023-05-31T08:32:08.669Z,0.60
2023-05-31T08:34:37.079Z,0.60
2023-05-31T08:37:05.830Z,0.70
2023-05-31T08:39:35.425Z,0.70
2023-05-31T08:42:07.118Z,0.70
2023-05-31T08:44:35.478Z,3.90
2023-05-31T08:47:12.960Z,10.83
2023-05-31T08:49:42.347Z,4.67
2023-05-31T08:52:11.785Z,2.67
2023-05-31T08:54:43.964Z,0.70
2023-05-31T08:57:13.957Z,0.73
2023-05-31T08:59:43.040Z,0.90
2023-05-31T09:02:12.493Z,0.80
2023-05-31T09:04:42.804Z,0.60
2023-05-31T09:07:11.069Z,3.27
2023-05-31T09:09:42.151Z,0.73
2023-05-31T09:12:11.710Z,0.83
2023-05-31T09:14:40.676Z,3.03
2023-05-31T09:17:09.254Z,3.10
2023-05-31T09:19:43.356Z,0.60
2023-05-31T09:22:12.351Z,0.70
2023-05-31T09:24:52.126Z,0.77
2023-05-31T09:27:20.545Z,1.23
2023-05-31T09:29:54.832Z,1.43
2023-05-31T09:32:23.546Z,1.30
2023-05-31T09:34:52.930Z,2.30
2023-05-31T09:37:25.412Z,1.07
2023-05-31T09:39:58.469Z,4.77
2023-05-31T09:42:30.053Z,0.90
2023-05-31T09:45:00.837Z,0.70
2023-05-31T09:47:29.141Z,0.90
2023-05-31T09:49:58.170Z,0.80
2023-05-31T09:52:29.502Z,0.80
2023-05-31T09:54:59.591Z,0.90
2023-05-31T09:57:34.734Z,0.90
2023-05-31T10:00:06.859Z,0.80
2023-05-31T10:02:35.345Z,0.90
2023-05-31T10:05:03.890Z,1.13
2023-05-31T10:07:32.476Z,1.03
2023-05-31T10:10:02.009Z,0.97
2023-05-31T10:12:34.117Z,1.77
2023-05-31T10:15:07.543Z,0.80
2023-05-31T10:17:41.311Z,0.70
2023-05-31T10:20:14.340Z,0.70
2023-05-31T10:22:46.738Z,0.80
2023-05-31T10:25:26.528Z,3.90
2023-05-31T10:27:57.912Z,1.00
2023-05-31T10:30:31.120Z,0.83
2023-05-31T10:33:05.666Z,4.17
2023-05-31T10:35:34.128Z,0.57
2023-05-31T10:38:03.801Z,2.57
2023-05-31T10:40:39.344Z,0.70
2023-05-31T10:43:14.170Z,0.90
2023-05-31T10:45:47.998Z,0.87
2023-05-31T10:48:23.134Z,0.90
2023-05-31T10:50:55.772Z,0.77
2023-05-31T10:53:24.460Z,0.60
2023-05-31T10:55:53.992Z,0.73
2023-05-31T10:58:31.960Z,0.80
2023-05-31T11:01:06.151Z,2.40
2023-05-31T11:03:40.280Z,1.00
2023-05-31T11:06:12.579Z,0.90
2023-05-31T11:08:41.403Z,1.00
2023-05-31T11:11:46.264Z,0.80
2023-05-31T11:14:32.818Z,0.87
2023-05-31T11:17:18.122Z,0.80
2023-05-31T11:19:55.100Z,0.60
2023-05-31T11:22:29.195Z,0.80
2023-05-31T11:24:59.558Z,0.83
2023-05-31T11:27:39.033Z,0.93
2023-05-31T11:30:09.914Z,4.00
2023-05-31T11:33:01.506Z,0.80
2023-05-31T11:35:34.423Z,1.00
2023-05-31T11:38:07.114Z,1.13
2023-05-31T11:40:37.235Z,1.00
2023-05-31T11:43:09.809Z,0.83
2023-05-31T11:45:45.751Z,0.80
2023-05-31T11:48:34.613Z,0.77
2023-05-31T11:51:05.647Z,0.90
2023-05-31T11:53:33.870Z,0.90
2023-05-31T11:56:02.050Z,2.70
2023-05-31T11:58:31.879Z,0.80
2023-05-31T12:01:03.236Z,0.80
2023-05-31T12:03:33.232Z,1.00
2023-05-31T12:06:01.891Z,0.40
2023-05-31T12:08:30.713Z,0.80
2023-05-31T12:11:06.656Z,0.83
2023-05-31T12:13:36.686Z,2.23
2023-05-31T12:16:08.194Z,1.10
2023-05-31T12:18:37.577Z,1.60
2023-05-31T12:21:10.922Z,1.43
2023-05-31T12:23:54.044Z,0.80
2023-05-31T12:26:24.324Z,0.70
2023-05-31T12:28:54.106Z,0.60
2023-05-31T12:31:24.377Z,0.97
2023-05-31T12:34:01.430Z,0.67
2023-05-31T12:36:29.876Z,0.80
2023-05-31T12:38:58.854Z,0.63
2023-05-31T12:41:28.134Z,1.13
2023-05-31T12:44:01.196Z,0.70
2023-05-31T12:46:29.683Z,1.13
2023-05-31T12:48:58.247Z,2.20
2023-05-31T12:51:27.479Z,0.87
2023-05-31T12:53:55.914Z,0.80
2023-05-31T12:56:24.201Z,0.57
2023-05-31T12:58:53.560Z,0.70
2023-05-31T13:01:23.926Z,0.70
2023-05-31T13:03:52.128Z,0.90
2023-05-31T13:06:20.571Z,0.60
2023-05-31T13:08:49.429Z,1.50
2023-05-31T13:11:17.660Z,1.03
2023-05-31T13:13:45.832Z,0.67
2023-05-31T13:16:14.249Z,0.60
2023-05-31T13:18:43.912Z,2.30
2023-05-31T13:21:12.141Z,0.73
2023-05-31T13:23:40.571Z,0.70
2023-05-31T13:26:09.049Z,0.90
2023-05-31T13:28:37.292Z,0.70
2023-05-31T13:31:06.213Z,2.20
2023-05-31T13:33:34.501Z,0.35
2023-05-31T13:36:04.360Z,0.70
2023-05-31T13:38:32.634Z,0.80
2023-05-31T13:41:01.070Z,0.87
2023-05-31T13:43:30.651Z,0.80
2023-05-31T13:46:00.107Z,0.73
2023-05-31T13:48:28.401Z,0.50
2023-05-31T13:50:56.763Z,1.00
2023-05-31T13:53:26.637Z,0.40
2023-05-31T13:56:03.155Z,0.83
2023-05-31T13:58:32.990Z,0.50
2023-05-31T14:01:01.989Z,0.70
2023-05-31T14:03:30.580Z,0.50
2023-05-31T14:05:59.165Z,0.77
2023-05-31T14:08:28.871Z,0.70
2023-05-31T14:10:57.233Z,0.40
2023-05-31T14:13:25.985Z,0.60
2023-05-31T14:15:55.160Z,1.00
2023-05-31T14:18:23.870Z,0.50
2023-05-31T14:20:53.212Z,0.50
2023-05-31T14:23:21.636Z,0.60
2023-05-31T14:25:51.206Z,0.50
2023-05-31T14:28:19.520Z,0.80
2023-05-31T14:30:47.800Z,0.60
2023-05-31T14:33:16.151Z,0.37
2023-05-31T14:35:45.023Z,0.60
2023-05-31T14:38:34.572Z,0.60
2023-05-31T14:41:03.650Z,0.50
2023-05-31T14:43:32.091Z,0.53
2023-05-31T14:46:00.547Z,0.73
2023-05-31T14:48:28.936Z,0.83
2023-05-31T14:50:57.593Z,0.60
2023-05-31T14:53:25.872Z,0.47
2023-05-31T14:56:04.902Z,0.50
2023-05-31T14:58:38.966Z,0.50
2023-05-31T15:01:07.511Z,0.50
2023-05-31T15:03:35.966Z,0.60
2023-05-31T15:06:04.408Z,0.60
2023-05-31T15:08:34.297Z,0.47
2023-05-31T15:11:03.964Z,0.50
2023-05-31T15:13:32.566Z,0.57
2023-05-31T15:16:02.316Z,0.40
2023-05-31T15:18:30.742Z,0.70
2023-05-31T15:20:59.257Z,0.57
2023-05-31T15:23:27.830Z,0.53
2023-05-31T15:25:56.286Z,0.63
2023-05-31T15:28:24.837Z,0.70
2023-05-31T15:30:53.296Z,0.63
2023-05-31T15:33:23.066Z,0.70
2023-05-31T15:35:51.357Z,0.60
2023-05-31T15:38:19.744Z,0.37
2023-05-31T15:40:48.223Z,0.50
2023-05-31T15:43:18.154Z,0.40
2023-05-31T15:45:47.916Z,0.40
2023-05-31T15:48:16.370Z,0.40
2023-05-31T15:50:46.102Z,0.50
2023-05-31T15:53:14.576Z,0.40
2023-05-31T15:55:45.119Z,0.57
2023-05-31T15:58:13.376Z,0.40
2023-05-31T16:00:41.563Z,0.27
2023-05-31T16:03:09.870Z,0.43
2023-05-31T16:05:38.208Z,0.30
2023-05-31T16:08:08.042Z,0.63
2023-05-31T16:10:36.366Z,0.40
2023-05-31T16:13:08.864Z,0.30
2023-05-31T16:15:37.506Z,0.60
2023-05-31T16:18:06.224Z,0.50
2023-05-31T16:20:34.852Z,0.40
2023-05-31T16:23:03.697Z,0.40
2023-05-31T16:25:33.821Z,0.43
2023-05-31T16:28:02.034Z,0.57
2023-05-31T16:30:30.330Z,0.50
2023-05-31T16:32:58.817Z,0.70
2023-05-31T16:35:27.230Z,0.47
2023-05-31T16:37:55.641Z,0.50
2023-05-31T16:40:23.905Z,0.50
2023-05-31T16:42:55.741Z,0.60
2023-05-31T16:45:25.005Z,0.80
2023-05-31T16:47:53.372Z,2.40
2023-05-31T16:50:21.588Z,0.70
2023-05-31T16:52:52.759Z,2.63
2023-05-31T16:55:21.634Z,3.67
2023-05-31T16:57:50.525Z,3.83
2023-05-31T17:00:21.228Z,3.73
2023-05-31T17:02:49.586Z,3.80
2023-05-31T17:05:18.184Z,4.90
2023-05-31T17:07:46.781Z,7.93
2023-05-31T17:10:15.069Z,8.17
2023-05-31T17:12:44.118Z,6.87
2023-05-31T17:15:12.876Z,8.63
2023-05-31T17:17:43.502Z,9.30
2023-05-31T17:20:13.364Z,16.80
2023-05-31T17:22:42.696Z,18.67
2023-05-31T17:25:11.231Z,15.40
2023-05-31T17:27:39.473Z,39.67
2023-05-31T17:30:09.055Z,3.10
2023-05-31T17:32:37.482Z,0.70
2023-05-31T17:35:08.560Z,10.03
2023-05-31T17:37:36.824Z,10.60
2023-05-31T17:40:05.586Z,17.70
2023-05-31T17:42:34.043Z,14.27
2023-05-31T17:45:02.305Z,3.80
2023-05-31T17:47:30.770Z,9.67
2023-05-31T17:50:01.370Z,3.43
2023-05-31T17:52:35.169Z,6.10
2023-05-31T17:55:04.596Z,8.80
2023-05-31T17:57:33.046Z,26.23
2023-05-31T18:00:01.228Z,3.93
2023-05-31T18:02:30.352Z,6.30
2023-05-31T18:04:58.594Z,7.30
2023-05-31T18:07:26.913Z,4.57
2023-05-31T18:09:56.706Z,7.40
2023-05-31T18:12:25.194Z,15.83
2023-05-31T18:14:53.974Z,4.57
2023-05-31T18:17:22.428Z,5.60
2023-05-31T18:19:50.606Z,7.10
2023-05-31T18:22:18.814Z,6.67
2023-05-31T18:24:47.312Z,5.50
2023-05-31T18:27:19.653Z,7.33
2023-05-31T18:29:49.034Z,2.33
2023-05-31T18:32:18.008Z,3.63
2023-05-31T18:34:46.684Z,5.53
2023-05-31T18:37:17.253Z,3.50
2023-05-31T18:39:45.581Z,3.43
2023-05-31T18:42:14.636Z,5.43
2023-05-31T18:44:45.417Z,8.07
2023-05-31T18:47:14.017Z,4.50
2023-05-31T18:49:42.272Z,6.93
2023-05-31T18:52:10.584Z,33.97
2023-05-31T18:54:39.034Z,8.83
2023-05-31T18:57:07.725Z,6.90
2023-05-31T18:59:36.414Z,8.43
2023-05-31T19:02:07.007Z,6.13
2023-05-31T19:04:35.361Z,4.20
2023-05-31T19:07:03.712Z,6.63
2023-05-31T19:09:32.050Z,6.03
2023-05-31T19:12:00.439Z,6.53
2023-05-31T19:14:28.896Z,3.33
2023-05-31T19:16:57.200Z,5.33
2023-05-31T19:19:26.806Z,4.50
2023-05-31T19:21:55.120Z,4.37
2023-05-31T19:24:23.466Z,8.53
2023-05-31T19:26:51.643Z,4.70
2023-05-31T19:29:20.199Z,8.03
2023-05-31T19:31:49.234Z,8.33
2023-05-31T19:34:17.568Z,5.53
2023-05-31T19:36:47.394Z,7.13
2023-05-31T19:39:19.208Z,6.53
2023-05-31T19:41:48.481Z,11.73
2023-05-31T19:44:17.217Z,9.33
2023-05-31T19:46:45.546Z,12.23
2023-05-31T19:49:14.007Z,9.30
2023-05-31T19:51:42.130Z,3.70
2023-05-31T19:54:11.804Z,6.90
2023-05-31T19:56:40.179Z,5.07
2023-05-31T19:59:09.999Z,7.00
2023-05-31T20:01:38.384Z,3.40
2023-05-31T20:04:07.415Z,18.63
2023-05-31T20:06:35.711Z,9.83
2023-05-31T20:09:04.212Z,4.23
2023-05-31T20:11:35.740Z,4.93
2023-05-31T20:14:04.095Z,5.90
2023-05-31T20:16:32.438Z,10.60
2023-05-31T20:19:00.783Z,5.30
2023-05-31T20:21:29.318Z,6.03
2023-05-31T20:23:57.654Z,6.13
2023-05-31T20:26:26.104Z,8.00
2023-05-31T20:28:55.789Z,7.70
2023-05-31T20:31:24.129Z,6.10
2023-05-31T20:33:53.407Z,7.83
2023-05-31T20:36:21.655Z,6.43
2023-05-31T20:38:49.835Z,7.77
2023-05-31T20:41:18.301Z,4.70
2023-05-31T20:43:46.731Z,7.50
2023-05-31T20:46:16.449Z,7.73
2023-05-31T20:48:46.736Z,7.53
2023-05-31T20:51:14.953Z,6.53
2023-05-31T20:53:43.325Z,6.80
2023-05-31T20:56:12.012Z,9.93
2023-05-31T20:58:40.753Z,9.40
2023-05-31T21:01:09.807Z,6.30
2023-05-31T21:03:39.724Z,10.13
2023-05-31T21:06:08.382Z,5.10
2023-05-31T21:08:36.535Z,6.77
2023-05-31T21:11:08.722Z,7.47
2023-05-31T21:13:37.177Z,5.47
2023-05-31T21:16:05.803Z,6.67
2023-05-31T21:18:34.134Z,8.33
2023-05-31T21:21:03.645Z,4.83
2023-05-31T21:23:32.128Z,11.23
2023-05-31T21:26:00.870Z,8.13
2023-05-31T21:28:29.198Z,5.93
2023-05-31T21:30:57.567Z,5.67
2023-05-31T21:33:25.861Z,6.70
2023-05-31T21:35:54.134Z,9.17
2023-05-31T21:38:23.885Z,5.77
2023-05-31T21:40:52.261Z,10.90
2023-05-31T21:43:20.574Z,5.07
2023-05-31T21:45:48.942Z,6.20
2023-05-31T21:48:17.302Z,5.63
2023-05-31T21:50:45.705Z,13.43
2023-05-31T21:53:14.094Z,4.93
2023-05-31T21:55:43.755Z,9.07
2023-05-31T21:58:12.198Z,8.00
2023-05-31T22:00:40.891Z,4.73
2023-05-31T22:03:09.440Z,13.07
2023-05-31T22:05:38.323Z,8.30
2023-05-31T22:08:07.061Z,13.10
2023-05-31T22:10:35.636Z,12.23
2023-05-31T22:13:05.260Z,9.30
2023-05-31T22:15:34.895Z,8.43
2023-05-31T22:18:03.899Z,7.80
2023-05-31T22:20:35.777Z,10.70
2023-05-31T22:23:05.380Z,4.90
2023-05-31T22:25:33.793Z,7.90
2023-05-31T22:28:02.004Z,8.43
2023-05-31T22:30:31.843Z,5.10
2023-05-31T22:33:00.396Z,7.00
2023-05-31T22:35:28.676Z,9.10
2023-05-31T22:37:57.578Z,8.13
2023-05-31T22:40:25.790Z,7.63
2023-05-31T22:42:53.973Z,12.27
2023-05-31T22:45:23.024Z,8.53
2023-05-31T22:47:53.022Z,10.33
2023-05-31T22:50:21.374Z,6.63
2023-05-31T22:52:49.679Z,14.93
2023-05-31T22:55:17.808Z,13.00
2023-05-31T22:57:46.047Z,6.20
2023-05-31T23:00:15.495Z,9.07
2023-05-31T23:02:44.185Z,8.77
2023-05-31T23:05:14.264Z,9.30
2023-05-31T23:07:48.032Z,7.00
2023-05-31T23:10:16.465Z,9.53
2023-05-31T23:12:46.329Z,4.00
2023-05-31T23:15:15.813Z,7.10
2023-05-31T23:17:44.494Z,10.63
2023-05-31T23:20:16.231Z,11.20
2023-05-31T23:22:46.466Z,8.63
2023-05-31T23:25:15.994Z,10.27
2023-05-31T23:27:44.595Z,9.00
2023-05-31T23:30:14.658Z,5.33
2023-05-31T23:32:43.823Z,6.13
2023-05-31T23:35:13.625Z,12.07
2023-05-31T23:37:52.774Z,6.57
2023-05-31T23:40:21.490Z,14.00
2023-05-31T23:42:49.795Z,13.20
2023-05-31T23:45:18.151Z,4.73
2023-05-31T23:47:46.701Z,4.73
2023-05-31T23:50:16.459Z,17.03
2023-05-31T23:52:44.747Z,8.40
2023-05-31T23:55:12.946Z,5.70
2023-05-31T23:57:41.172Z,9.47
